Time;durP1;ratioP1;P1;durP2;ratioP2;P2;SDS_P1;SDS_P2;PMS_P1;PMS_P2;Temp;Humidity;BMP_temperature;BMP_pressure;BME280_temperature;BME280_humidity;BME280_pressure;Samples;Min_cycle;Max_cycle;Signal;HPM_P1;HPM_P2
2022/02/12 00:00:58;;;;;;;4.10;0.60;;;24.60;99.90;;;;;;4983790;28;20360;-77
2022/02/12 00:03:25;;;;;;;1.77;0.70;;;25.40;99.90;;;;;;4980792;28;20112;-77
2022/02/12 00:05:53;;;;;;;2.28;0.63;;;25.80;99.90;;;;;;4984592;28;20026;-78
2022/02/12 00:08:21;;;;;;;3.78;0.43;;;25.60;99.90;;;;;;4987866;28;20033;-76
2022/02/12 00:10:49;;;;;;;6.82;0.90;;;25.30;99.90;;;;;;4980134;28;20088;-77
2022/02/12 00:13:16;;;;;;;1.35;0.30;;;25.20;99.90;;;;;;4983025;28;20045;-76
2022/02/12 00:15:44;;;;;;;2.15;0.50;;;24.70;99.90;;;;;;4988284;28;20117;-76
2022/02/12 00:18:12;;;;;;;2.45;0.57;;;24.30;99.90;;;;;;4979867;28;20381;-77
2022/02/12 00:20:39;;;;;;;2.80;0.75;;;23.90;99.90;;;;;;4973266;28;20057;-77
2022/02/12 00:23:07;;;;;;;4.00;0.50;;;23.50;99.90;;;;;;4981417;28;20165;-79
2022/02/12 00:25:35;;;;;;;5.68;0.65;;;23.20;99.90;;;;;;4989736;28;20030;-80
2022/02/12 00:28:03;;;;;;;1.67;0.60;;;22.90;99.90;;;;;;4986290;28;20038;-78
2022/02/12 00:30:31;;;;;;;2.30;1.38;;;22.80;99.90;;;;;;4978242;28;20026;-76
2022/02/12 00:32:59;;;;;;;2.25;1.00;;;23.00;99.90;;;;;;4977056;28;20063;-79
2022/02/12 00:35:26;;;;;;;3.42;0.50;;;23.40;99.90;;;;;;4979708;28;20485;-78
2022/02/12 00:37:54;;;;;;;4.28;0.57;;;24.10;99.90;;;;;;4980605;28;20030;-80
2022/02/12 00:40:22;;;;;;;3.72;0.40;;;25.00;99.90;;;;;;4980908;28;20029;-77
2022/02/12 00:42:50;;;;;;;2.60;0.43;;;25.30;99.90;;;;;;4980239;28;20042;-77
2022/02/12 00:45:18;;;;;;;4.13;0.85;;;25.30;99.90;;;;;;4982173;28;20026;-77
2022/02/12 00:47:45;;;;;;;4.13;1.17;;;25.20;99.90;;;;;;4977777;28;20043;-77
2022/02/12 00:50:12;;;;;;;1.95;0.40;;;25.20;99.90;;;;;;4980078;28;20080;-77
2022/02/12 00:52:40;;;;;;;2.38;0.52;;;25.30;99.90;;;;;;4979867;28;20109;-77
2022/02/12 00:55:08;;;;;;;2.42;0.60;;;25.30;99.90;;;;;;4977872;28;20502;-77
2022/02/12 00:57:35;;;;;;;1.30;0.38;;;25.10;99.90;;;;;;4978152;28;20065;-78
2022/02/12 01:00:04;;;;;;;5.07;0.70;;;24.90;99.90;;;;;;4974748;28;20019;-77
2022/02/12 01:02:32;;;;;;;3.92;0.45;;;24.70;99.90;;;;;;4979058;28;20481;-78
2022/02/12 01:04:59;;;;;;;3.28;0.63;;;24.60;99.90;;;;;;4979036;28;20030;-76
2022/02/12 01:07:27;;;;;;;1.08;0.60;;;24.60;99.90;;;;;;4974731;28;20039;-78
2022/02/12 01:09:54;;;;;;;1.33;0.40;;;24.50;99.90;;;;;;4979217;28;20037;-77
2022/02/12 01:12:21;;;;;;;4.07;1.23;;;24.50;99.90;;;;;;4977885;28;20117;-78
2022/02/12 01:14:49;;;;;;;2.90;0.43;;;24.90;99.90;;;;;;4979669;28;20042;-78
2022/02/12 01:17:16;;;;;;;2.83;0.55;;;25.50;99.80;;;;;;4977864;28;20136;-76
2022/02/12 01:19:46;;;;;;;1.80;0.30;;;26.00;99.70;;;;;;4977565;28;20125;-76
2022/02/12 01:22:14;;;;;;;0.98;0.32;;;26.10;98.10;;;;;;4985003;28;20114;-77
2022/02/12 01:24:42;;;;;;;4.30;0.82;;;26.30;97.90;;;;;;4981523;28;20038;-79
2022/02/12 01:27:09;;;;;;;4.57;0.40;;;26.50;98.20;;;;;;4986002;28;20030;-78
2022/02/12 01:29:37;;;;;;;2.75;0.60;;;26.70;97.70;;;;;;4980710;28;20444;-76
2022/02/12 01:32:05;;;;;;;2.70;0.45;;;27.10;97.10;;;;;;4977339;28;20121;-77
2022/02/12 01:34:33;;;;;;;5.43;0.50;;;27.80;96.40;;;;;;4976006;28;20037;-76
2022/02/12 01:37:06;;;;;;;3.63;0.55;;;28.00;96.40;;;;;;4976355;28;20084;-79
2022/02/12 01:39:34;;;;;;;2.70;0.50;;;27.70;95.90;;;;;;4976301;28;20030;-79
2022/02/12 01:42:01;;;;;;;3.50;0.93;;;27.30;96.80;;;;;;4982491;28;20034;-78
2022/02/12 01:44:37;;;;;;;2.33;0.45;;;27.80;96.30;;;;;;4988863;28;20113;-77
2022/02/12 01:47:07;;;;;;;1.67;0.32;;;27.90;95.40;;;;;;4984511;28;20038;-77
2022/02/12 01:49:34;;;;;;;5.18;0.70;;;27.70;95.80;;;;;;4974706;28;20038;-77
2022/02/12 01:52:05;;;;;;;6.93;0.80;;;27.40;96.00;;;;;;4984302;28;20062;-76
2022/02/12 01:54:33;;;;;;;7.85;0.80;;;27.10;95.50;;;;;;4986186;28;20114;-76
2022/02/12 01:57:05;;;;;;;2.65;0.57;;;26.60;96.00;;;;;;4980238;28;20088;-76
2022/02/12 01:59:33;;;;;;;3.58;0.52;;;26.20;96.50;;;;;;4979677;28;20022;-77
2022/02/12 02:02:01;;;;;;;4.72;0.98;;;25.80;97.40;;;;;;4990453;28;20501;-77
2022/02/12 02:04:29;;;;;;;4.68;0.52;;;25.20;99.90;;;;;;4995090;28;20034;-78
2022/02/12 02:06:57;;;;;;;5.35;1.02;;;24.80;99.90;;;;;;4985689;28;20508;-77
2022/02/12 02:09:26;;;;;;;3.75;1.05;;;24.60;99.90;;;;;;4980087;28;20366;-78
2022/02/12 02:11:54;;;;;;;4.80;0.68;;;24.40;99.90;;;;;;4981611;28;20374;-77
2022/02/12 02:14:31;;;;;;;1.70;0.73;;;24.50;99.90;;;;;;4974928;28;20023;-77
2022/02/12 02:16:59;;;;;;;4.20;0.63;;;24.70;99.90;;;;;;4977461;28;20073;-77
2022/02/12 02:19:26;;;;;;;2.38;0.45;;;25.50;99.90;;;;;;4987690;28;20039;-77
2022/02/12 02:21:57;;;;;;;4.57;1.08;;;25.90;99.90;;;;;;4981618;28;20378;-78
2022/02/12 02:24:25;;;;;;;7.45;1.08;;;26.30;99.20;;;;;;4975294;28;20043;-79
2022/02/12 02:27:02;;;;;;;1.30;0.30;;;26.40;99.30;;;;;;4974774;28;20465;-76
2022/02/12 02:29:30;;;;;;;5.05;0.52;;;26.60;98.30;;;;;;4992196;28;20038;-77
2022/02/12 02:31:58;;;;;;;2.38;0.50;;;27.20;98.50;;;;;;4992340;28;20109;-77
2022/02/12 02:34:26;;;;;;;5.32;0.40;;;27.70;97.30;;;;;;4978596;28;20031;-78
2022/02/12 02:36:54;;;;;;;2.00;0.55;;;28.00;95.90;;;;;;4986113;28;20041;-77
2022/02/12 02:39:21;;;;;;;3.03;0.60;;;27.60;95.60;;;;;;4973909;28;20062;-78
2022/02/12 02:41:49;;;;;;;3.45;0.70;;;27.30;95.60;;;;;;4983428;28;20038;-77
2022/02/12 02:44:21;;;;;;;6.80;0.82;;;27.00;96.50;;;;;;4989087;28;20492;-77
2022/02/12 02:46:48;;;;;;;7.32;1.10;;;26.70;96.00;;;;;;4988218;28;20401;-78
2022/02/12 02:49:16;;;;;;;3.58;0.52;;;26.50;96.50;;;;;;4987432;28;20062;-77
2022/02/12 02:57:14;;;;;;;2.72;0.52;;;26.60;95.60;;;;;;4991131;28;20504;-77
2022/02/12 02:59:41;;;;;;;3.63;1.35;;;26.50;96.50;;;;;;4988410;28;20014;-78
2022/02/12 03:02:09;;;;;;;3.63;0.85;;;26.60;96.30;;;;;;4984856;28;20027;-78
2022/02/12 03:04:36;;;;;;;2.78;0.43;;;26.80;96.50;;;;;;4980216;28;20726;-78
2022/02/12 03:07:04;;;;;;;2.90;0.85;;;26.80;96.50;;;;;;4987682;28;20093;-78
2022/02/12 03:09:31;;;;;;;1.95;0.43;;;26.80;96.40;;;;;;4991173;28;20030;-79
2022/02/12 03:11:58;;;;;;;4.13;0.60;;;26.70;96.60;;;;;;4983042;28;20053;-78
2022/02/12 03:14:26;;;;;;;3.67;0.38;;;26.70;96.50;;;;;;4974099;28;20062;-77
2022/02/12 03:16:59;;;;;;;8.32;0.60;;;26.80;96.60;;;;;;4978686;28;20260;-78
2022/02/12 03:19:26;;;;;;;3.00;1.00;;;26.80;96.00;;;;;;4990154;28;20034;-77
2022/02/12 03:21:54;;;;;;;3.78;1.35;;;26.70;96.60;;;;;;4980649;28;20487;-77
2022/02/12 03:24:21;;;;;;;1.50;0.80;;;26.70;96.60;;;;;;4992952;28;20038;-76
2022/02/12 03:26:48;;;;;;;2.50;0.57;;;26.60;96.30;;;;;;4980755;28;22042;-76
2022/02/12 03:29:15;;;;;;;3.33;0.75;;;26.40;96.20;;;;;;4981739;28;20026;-78
2022/02/12 03:31:43;;;;;;;4.00;0.90;;;26.50;96.30;;;;;;4982674;28;20417;-78
2022/02/12 03:34:11;;;;;;;1.73;0.40;;;26.90;96.40;;;;;;4983180;28;20042;-77
2022/02/12 03:36:39;;;;;;;2.85;0.43;;;27.30;95.80;;;;;;4982736;28;20042;-77
2022/02/12 03:39:06;;;;;;;4.60;0.68;;;27.50;95.40;;;;;;4978477;28;20076;-76
2022/02/12 03:41:33;;;;;;;2.35;0.70;;;27.60;95.20;;;;;;4986924;28;20093;-78
2022/02/12 03:44:01;;;;;;;3.85;0.68;;;27.10;95.60;;;;;;4988050;28;20031;-78
2022/02/12 03:46:28;;;;;;;4.20;1.48;;;27.00;95.50;;;;;;4983349;28;20109;-78
2022/02/12 03:48:56;;;;;;;3.75;0.70;;;27.10;95.70;;;;;;4986586;28;20037;-79
2022/02/12 03:51:23;;;;;;;5.28;0.73;;;26.70;95.60;;;;;;4980199;28;20063;-77
2022/02/12 03:53:54;;;;;;;2.63;0.73;;;26.20;96.30;;;;;;4965921;28;20086;-76
2022/02/12 03:56:21;;;;;;;3.97;0.50;;;25.50;97.40;;;;;;4978617;28;20068;-77
2022/02/12 03:58:48;;;;;;;4.68;0.73;;;24.70;99.90;;;;;;4988042;28;20696;-77
2022/02/12 04:01:16;;;;;;;5.95;0.98;;;23.90;99.90;;;;;;4986426;28;20045;-78
2022/02/12 04:03:43;;;;;;;4.15;0.85;;;23.60;99.90;;;;;;4982926;28;20075;-77
2022/02/12 04:06:10;;;;;;;4.82;0.60;;;23.40;99.90;;;;;;4979786;28;20026;-78
2022/02/12 04:08:38;;;;;;;4.32;0.88;;;23.20;99.90;;;;;;4977994;28;20453;-77
2022/02/12 04:11:05;;;;;;;3.45;0.60;;;23.10;99.90;;;;;;4980581;28;20123;-77
2022/02/12 04:13:34;;;;;;;3.67;0.57;;;23.00;99.90;;;;;;4977919;28;20027;-77
2022/02/12 04:16:01;;;;;;;2.25;0.65;;;22.90;99.90;;;;;;4978883;28;20042;-76
2022/02/12 04:18:28;;;;;;;4.78;0.65;;;22.80;99.90;;;;;;4983123;28;20030;-76
2022/02/12 04:20:55;;;;;;;4.55;0.77;;;22.80;99.90;;;;;;4978803;28;20481;-76
2022/02/12 04:23:23;;;;;;;3.80;0.70;;;22.80;99.90;;;;;;4980850;28;20041;-77
2022/02/12 04:25:50;;;;;;;6.50;1.17;;;22.80;99.90;;;;;;4977371;28;20436;-76
2022/02/12 04:28:18;;;;;;;2.58;0.50;;;22.70;99.90;;;;;;4980417;28;20522;-76
2022/02/12 04:30:45;;;;;;;2.78;0.77;;;22.70;99.90;;;;;;4964607;28;20041;-76
2022/02/12 04:33:12;;;;;;;6.50;0.95;;;22.80;99.90;;;;;;4980387;28;20041;-77
2022/02/12 04:35:40;;;;;;;6.65;0.70;;;23.00;99.90;;;;;;4975914;28;20030;-76
2022/02/12 04:38:08;;;;;;;2.97;0.50;;;23.30;99.90;;;;;;4978325;28;20704;-76
2022/02/12 04:40:36;;;;;;;4.43;2.05;;;23.50;99.90;;;;;;4979111;28;20069;-76
2022/02/12 04:43:03;;;;;;;3.67;0.70;;;23.90;99.90;;;;;;4980399;28;20046;-77
2022/02/12 04:45:31;;;;;;;4.10;1.10;;;24.20;99.90;;;;;;4976107;28;20025;-77
2022/02/12 04:47:58;;;;;;;6.20;1.08;;;24.40;99.90;;;;;;4978562;28;20157;-78
2022/02/12 04:50:26;;;;;;;2.47;0.50;;;24.40;99.90;;;;;;4977755;28;20118;-78
2022/02/12 04:52:53;;;;;;;4.57;0.80;;;24.50;99.90;;;;;;4977833;28;20038;-77
2022/02/12 04:55:21;;;;;;;3.15;0.60;;;24.50;99.90;;;;;;4979887;28;20343;-77
2022/02/12 04:57:48;;;;;;;2.88;0.68;;;24.20;99.90;;;;;;4960799;28;20449;-77
2022/02/12 05:00:16;;;;;;;4.05;0.50;;;23.80;99.90;;;;;;4980706;28;20421;-77
2022/02/12 05:02:45;;;;;;;3.08;0.50;;;23.40;99.90;;;;;;4983636;28;20042;-77
2022/02/12 05:05:13;;;;;;;2.72;0.70;;;23.20;99.90;;;;;;4990926;28;20022;-76
2022/02/12 05:07:40;;;;;;;3.28;0.50;;;23.10;99.90;;;;;;4976293;28;20031;-76
2022/02/12 05:10:09;;;;;;;4.68;0.30;;;23.10;99.90;;;;;;4979436;28;20415;-76
2022/02/12 05:12:39;;;;;;;3.63;0.30;;;23.20;99.90;;;;;;4977131;28;20057;-77
2022/02/12 05:15:07;;;;;;;1.58;0.50;;;23.30;99.90;;;;;;4973137;28;20027;-78
2022/02/12 05:17:35;;;;;;;1.35;0.30;;;23.40;99.90;;;;;;4982352;28;20046;-78
2022/02/12 05:20:02;;;;;;;2.20;0.77;;;23.60;99.90;;;;;;4989046;28;20080;-78
2022/02/12 05:22:30;;;;;;;3.90;0.70;;;23.60;99.90;;;;;;4979596;28;20205;-78
2022/02/12 05:24:57;;;;;;;4.63;0.85;;;23.60;99.90;;;;;;4980008;28;20110;-81
2022/02/12 05:27:24;;;;;;;7.60;0.85;;;23.60;99.90;;;;;;4979674;28;20019;-77
2022/02/12 05:29:52;;;;;;;1.05;0.20;;;23.60;99.90;;;;;;4978957;28;20092;-77
2022/02/12 05:32:19;;;;;;;1.98;0.50;;;23.50;99.90;;;;;;4982649;28;20026;-77
2022/02/12 05:34:46;;;;;;;2.50;0.47;;;23.60;99.90;;;;;;4983215;28;20034;-78
2022/02/12 05:37:14;;;;;;;2.85;0.52;;;23.70;99.90;;;;;;4985043;28;20113;-74
2022/02/12 05:39:41;;;;;;;3.45;0.60;;;23.90;99.90;;;;;;4989366;28;20129;-76
2022/02/12 05:42:08;;;;;;;1.95;0.50;;;24.10;99.90;;;;;;4986732;28;20327;-78
2022/02/12 05:44:36;;;;;;;1.25;0.40;;;24.30;99.90;;;;;;4994467;28;20353;-76
2022/02/12 05:47:03;;;;;;;0.98;0.63;;;24.40;99.90;;;;;;4992694;28;20030;-77
2022/02/12 05:49:31;;;;;;;3.42;1.08;;;24.30;99.70;;;;;;4975705;28;20046;-77
2022/02/12 05:51:58;;;;;;;4.60;1.13;;;24.10;99.90;;;;;;4978247;28;20035;-76
2022/02/12 05:54:25;;;;;;;5.63;1.38;;;23.50;99.90;;;;;;4982221;28;20078;-78
2022/02/12 05:56:53;;;;;;;2.92;0.55;;;23.20;99.90;;;;;;4992413;28;20511;-76
2022/02/12 05:59:20;;;;;;;2.92;0.65;;;22.90;99.90;;;;;;4996176;28;20060;-77
2022/02/12 06:01:47;;;;;;;1.73;0.70;;;22.60;99.90;;;;;;4963864;28;20058;-76
2022/02/12 06:04:15;;;;;;;2.97;0.70;;;22.30;99.90;;;;;;4984427;28;20406;-76
2022/02/12 06:06:42;;;;;;;1.40;0.40;;;22.10;99.90;;;;;;4981184;28;20075;-75
2022/02/12 06:09:09;;;;;;;4.43;1.02;;;21.90;99.90;;;;;;4987532;28;20027;-78
2022/02/12 06:11:37;;;;;;;1.73;0.50;;;21.80;99.90;;;;;;4990377;28;20038;-77
2022/02/12 06:14:04;;;;;;;2.33;0.55;;;21.70;99.90;;;;;;4991142;28;20336;-77
2022/02/12 06:16:32;;;;;;;6.15;0.60;;;21.60;99.90;;;;;;4983289;28;20487;-77
2022/02/12 06:18:59;;;;;;;3.88;1.20;;;21.40;99.90;;;;;;4969662;28;20054;-77
2022/02/12 06:21:26;;;;;;;4.07;0.82;;;21.20;99.90;;;;;;4981774;28;20037;-79
2022/02/12 06:23:54;;;;;;;5.60;2.30;;;21.20;99.90;;;;;;4988111;28;20685;-78
2022/02/12 06:26:21;;;;;;;6.28;2.03;;;21.40;99.90;;;;;;4986449;28;20038;-78
2022/02/12 06:28:48;;;;;;;4.95;1.05;;;21.60;99.90;;;;;;4984655;28;20034;-78
2022/02/12 06:31:19;;;;;;;6.25;1.33;;;21.80;99.90;;;;;;4977663;28;20026;-76
2022/02/12 06:33:46;;;;;;;5.25;1.27;;;21.90;99.90;;;;;;4991114;28;20477;-78
2022/02/12 06:36:13;;;;;;;5.43;1.08;;;22.00;99.90;;;;;;4987909;28;20034;-77
2022/02/12 06:38:41;;;;;;;4.70;1.10;;;22.10;99.90;;;;;;4977697;28;20045;-77
2022/02/12 06:41:09;;;;;;;5.63;1.88;;;22.30;99.90;;;;;;4979367;28;20025;-78
2022/02/12 06:43:36;;;;;;;4.72;0.88;;;22.40;99.90;;;;;;4982270;28;20034;-77
2022/02/12 06:46:04;;;;;;;3.83;0.98;;;22.50;99.90;;;;;;4980041;28;20030;-79
2022/02/12 06:48:33;;;;;;;4.43;0.75;;;22.70;99.90;;;;;;4982430;28;20042;-77
2022/02/12 06:51:00;;;;;;;5.03;1.15;;;22.70;99.90;;;;;;4979122;28;20101;-78
2022/02/12 06:53:28;;;;;;;5.93;1.23;;;22.70;99.90;;;;;;4950033;28;20114;-77
2022/02/12 06:55:55;;;;;;;9.35;1.48;;;22.80;99.90;;;;;;4987934;28;20042;-78
2022/02/12 06:58:22;;;;;;;11.48;2.55;;;22.80;99.90;;;;;;4985916;28;20042;-77
2022/02/12 07:00:49;;;;;;;4.18;1.13;;;22.70;99.90;;;;;;4987421;28;20026;-76
2022/02/12 07:03:17;;;;;;;8.95;1.52;;;22.80;99.90;;;;;;4985829;28;20469;-80
2022/02/12 07:05:44;;;;;;;9.25;1.77;;;22.70;99.90;;;;;;4982568;28;20401;-80
2022/02/12 07:08:11;;;;;;;1.65;0.77;;;22.70;99.90;;;;;;4983304;28;20027;-78
2022/02/12 07:10:39;;;;;;;3.88;0.70;;;22.60;99.90;;;;;;4984965;28;20030;-78
2022/02/12 07:13:06;;;;;;;4.00;0.90;;;22.60;99.90;;;;;;4986178;28;20050;-77
2022/02/12 07:15:34;;;;;;;4.43;0.63;;;22.50;99.90;;;;;;4978269;28;20448;-79
2022/02/12 07:18:01;;;;;;;3.88;0.88;;;22.50;99.90;;;;;;4983379;28;20030;-78
2022/02/12 07:20:28;;;;;;;5.10;1.38;;;22.50;99.90;;;;;;4988659;28;20077;-78
2022/02/12 07:22:56;;;;;;;6.18;0.70;;;22.50;99.90;;;;;;4975674;28;20039;-79
2022/02/12 07:25:23;;;;;;;4.45;0.88;;;22.50;99.90;;;;;;4985176;28;20097;-79
2022/02/12 07:27:55;;;;;;;7.13;0.80;;;22.50;99.90;;;;;;4980455;28;20031;-78
2022/02/12 07:30:23;;;;;;;3.60;0.55;;;22.50;99.90;;;;;;4981182;28;20105;-77
2022/02/12 07:32:52;;;;;;;5.38;0.75;;;22.50;99.90;;;;;;4991731;28;20077;-78
2022/02/12 07:35:19;;;;;;;5.43;1.00;;;22.40;99.90;;;;;;4992354;28;20107;-78
2022/02/12 07:37:49;;;;;;;6.53;1.00;;;22.40;99.90;;;;;;4989451;28;20031;-78
2022/02/12 07:40:19;;;;;;;6.25;1.02;;;22.40;99.90;;;;;;4989932;28;20026;-79
2022/02/12 07:42:47;;;;;;;4.50;0.90;;;22.40;99.90;;;;;;4984900;28;20046;-78
2022/02/12 07:45:16;;;;;;;7.88;1.58;;;22.40;99.90;;;;;;4975555;28;20061;-78
2022/02/12 07:47:44;;;;;;;1.67;0.65;;;22.30;99.90;;;;;;4981389;28;20053;-78
2022/02/12 07:50:13;;;;;;;2.78;1.15;;;22.30;99.90;;;;;;4988411;28;20015;-79
2022/02/12 07:52:43;;;;;;;3.92;0.70;;;22.20;99.90;;;;;;4960701;28;20026;-78
2022/02/12 07:55:11;;;;;;;4.93;0.85;;;22.10;99.90;;;;;;4989706;28;20389;-78
2022/02/12 07:57:39;;;;;;;2.75;0.40;;;21.90;99.90;;;;;;4996964;28;20073;-78
2022/02/12 08:00:08;;;;;;;2.15;0.40;;;21.70;99.90;;;;;;4992091;28;20026;-77
2022/02/12 08:02:35;;;;;;;2.00;0.40;;;21.50;99.90;;;;;;4979477;28;20043;-77
2022/02/12 08:05:03;;;;;;;7.55;1.00;;;21.40;99.90;;;;;;4972164;28;20046;-78
2022/02/12 08:07:31;;;;;;;3.80;0.70;;;21.40;99.90;;;;;;4984135;28;20026;-77
2022/02/12 08:11:22;;;;;;;1.23;0.85;;;21.30;99.90;;;;;;4988291;28;20381;-78
2022/02/12 08:12:50;;;;;;;3.50;0.63;;;21.30;99.90;;;;;;4984606;28;20057;-79
2022/02/12 08:15:18;;;;;;;3.97;0.73;;;21.30;99.90;;;;;;4983719;28;20021;-78
2022/02/12 08:17:45;;;;;;;7.00;1.42;;;21.30;99.90;;;;;;4980620;28;20050;-77
2022/02/12 08:20:13;;;;;;;5.82;0.93;;;21.20;99.90;;;;;;4992184;28;20042;-77
2022/02/12 08:22:41;;;;;;;2.85;0.40;;;21.20;99.90;;;;;;4980224;28;20041;-78
2022/02/12 08:25:09;;;;;;;2.85;0.73;;;21.20;99.90;;;;;;4975745;28;20034;-77
2022/02/12 08:27:37;;;;;;;2.45;0.40;;;21.20;99.90;;;;;;4982994;28;20033;-79
2022/02/12 08:30:08;;;;;;;2.05;0.35;;;21.20;99.90;;;;;;4982456;28;20034;-78
2022/02/12 08:32:41;;;;;;;4.47;0.57;;;21.20;99.90;;;;;;4988324;28;20026;-78
2022/02/12 08:35:13;;;;;;;2.17;0.57;;;21.20;99.90;;;;;;4984006;28;20352;-78
2022/02/12 08:37:42;;;;;;;3.97;0.65;;;21.20;99.90;;;;;;4987267;28;20462;-78
2022/02/12 08:40:12;;;;;;;1.38;0.50;;;21.10;99.90;;;;;;4980903;28;20097;-79
2022/02/12 08:42:41;;;;;;;5.18;0.70;;;21.00;99.90;;;;;;4979116;28;20022;-78
2022/02/12 08:45:09;;;;;;;2.50;0.60;;;20.90;99.90;;;;;;4990194;28;20018;-78
2022/02/12 08:47:37;;;;;;;4.50;0.50;;;20.90;99.90;;;;;;4987558;28;20474;-78
2022/02/12 08:50:08;;;;;;;2.80;0.63;;;20.90;99.90;;;;;;4987211;28;20036;-78
2022/02/12 08:52:37;;;;;;;3.72;0.60;;;20.90;99.90;;;;;;4982169;28;20504;-78
2022/02/12 08:55:05;;;;;;;3.97;1.05;;;20.80;99.90;;;;;;4966027;28;20058;-78
2022/02/12 08:57:32;;;;;;;2.88;0.68;;;20.70;99.90;;;;;;4985835;28;20046;-77
2022/02/12 09:00:00;;;;;;;4.70;0.50;;;20.80;99.90;;;;;;4989042;28;20049;-78
2022/02/12 09:02:27;;;;;;;4.90;0.73;;;20.70;99.90;;;;;;4984025;28;20085;-78
2022/02/12 09:04:55;;;;;;;2.17;0.40;;;20.60;99.90;;;;;;4988049;28;20038;-76
2022/02/12 09:07:22;;;;;;;3.38;0.60;;;20.50;99.90;;;;;;4980394;28;20018;-75
2022/02/12 09:09:49;;;;;;;3.75;0.60;;;20.30;99.90;;;;;;4991871;28;20053;-76
2022/02/12 09:12:17;;;;;;;4.00;0.50;;;20.30;99.90;;;;;;4989017;28;20485;-75
2022/02/12 09:14:44;;;;;;;4.57;0.40;;;20.20;99.90;;;;;;4991935;28;20125;-75
2022/02/12 09:17:11;;;;;;;0.45;0.30;;;20.10;99.90;;;;;;4990291;28;20045;-75
2022/02/12 09:19:39;;;;;;;1.55;0.40;;;20.00;99.90;;;;;;4992303;28;20382;-75
2022/02/12 09:22:06;;;;;;;1.10;0.30;;;20.00;99.90;;;;;;4985857;28;20037;-75
2022/02/12 09:24:33;;;;;;;2.15;0.57;;;20.00;99.90;;;;;;4983457;28;20488;-75
2022/02/12 09:27:01;;;;;;;3.25;0.45;;;19.90;99.90;;;;;;4978436;28;20031;-76
2022/02/12 09:29:29;;;;;;;4.13;0.40;;;19.90;99.90;;;;;;4986365;28;20480;-73
2022/02/12 09:31:56;;;;;;;3.78;0.55;;;19.90;99.90;;;;;;4981013;28;20026;-74
2022/02/12 09:34:23;;;;;;;2.53;0.73;;;19.90;99.90;;;;;;4982577;28;20030;-75
2022/02/12 09:36:51;;;;;;;4.13;0.55;;;19.90;99.90;;;;;;4990720;28;20483;-73
2022/02/12 09:39:18;;;;;;;2.58;0.77;;;19.90;99.90;;;;;;4976073;28;20040;-74
2022/02/12 09:41:45;;;;;;;3.22;0.75;;;19.80;99.90;;;;;;4983045;28;20022;-76
2022/02/12 09:44:13;;;;;;;4.95;0.70;;;19.80;99.90;;;;;;4992096;28;20458;-75
2022/02/12 09:46:58;;;;;;;3.13;0.63;;;19.80;99.90;;;;;;4981663;28;20524;-75
2022/02/12 09:49:26;;;;;;;4.95;0.68;;;19.70;99.90;;;;;;4988724;28;20457;-75
2022/02/12 09:51:56;;;;;;;1.80;0.45;;;19.70;99.90;;;;;;4982201;28;20046;-75
2022/02/12 09:54:23;;;;;;;2.80;0.80;;;19.70;99.90;;;;;;4990809;28;20050;-74
2022/02/12 09:56:51;;;;;;;3.13;1.63;;;19.60;99.90;;;;;;4984354;28;20090;-74
2022/02/12 09:59:18;;;;;;;5.30;1.42;;;19.60;99.90;;;;;;4992029;28;20030;-75
2022/02/12 10:01:45;;;;;;;0.70;0.35;;;19.60;99.90;;;;;;4980510;28;20433;-76
2022/02/12 10:04:17;;;;;;;4.40;0.50;;;19.60;99.90;;;;;;4980675;28;20097;-76
2022/02/12 10:06:47;;;;;;;2.08;0.57;;;19.60;99.90;;;;;;4988484;28;20509;-75
2022/02/12 10:19:47;;;;;;;2.78;0.57;;;19.70;99.90;;;;;;4978325;28;20046;-76
2022/02/12 10:22:19;;;;;;;2.72;1.38;;;19.70;99.90;;;;;;4987087;28;20023;-76
2022/02/12 10:25:05;;;;;;;4.22;1.40;;;19.70;99.90;;;;;;4985178;28;20042;-75
2022/02/12 10:27:36;;;;;;;6.07;1.55;;;19.70;99.90;;;;;;4985625;28;20113;-75
2022/02/12 10:30:04;;;;;;;2.95;1.73;;;19.70;99.90;;;;;;4984892;28;20050;-77
2022/02/12 10:32:31;;;;;;;3.15;1.70;;;19.70;99.90;;;;;;4985667;28;20544;-76
2022/02/12 10:34:59;;;;;;;5.53;1.02;;;19.70;99.90;;;;;;4989743;28;20026;-75
2022/02/12 10:37:27;;;;;;;2.33;0.65;;;19.70;99.90;;;;;;4985295;28;20109;-75
2022/02/12 10:40:02;;;;;;;1.90;0.40;;;19.70;99.90;;;;;;4983314;28;20396;-75
2022/02/12 10:42:39;;;;;;;1.05;0.38;;;19.70;99.90;;;;;;4972537;28;20037;-76
2022/02/12 10:45:07;;;;;;;5.20;0.95;;;19.70;99.90;;;;;;4983910;28;20117;-76
2022/02/12 10:47:34;;;;;;;4.22;1.15;;;19.60;99.90;;;;;;4979267;28;20040;-75
2022/02/12 10:50:03;;;;;;;1.60;0.43;;;19.60;99.90;;;;;;4981364;28;20034;-75
2022/02/12 10:52:52;;;;;;;2.10;0.65;;;19.60;99.90;;;;;;4980047;28;20049;-74
2022/02/12 10:55:37;;;;;;;2.47;0.98;;;19.60;99.90;;;;;;4977251;28;20141;-74
2022/02/12 10:58:06;;;;;;;2.60;0.60;;;19.60;99.90;;;;;;4979494;28;20090;-75
2022/02/12 11:00:36;;;;;;;5.45;0.77;;;19.60;99.90;;;;;;4967377;28;20045;-76
2022/02/12 11:03:09;;;;;;;1.58;0.50;;;19.50;99.90;;;;;;4980134;28;20093;-77
2022/02/12 11:05:42;;;;;;;2.83;1.13;;;19.50;99.90;;;;;;4980141;28;20018;-79
2022/02/12 11:08:13;;;;;;;2.58;0.65;;;19.50;99.90;;;;;;4981522;28;20058;-77
2022/02/12 11:10:42;;;;;;;2.25;0.70;;;19.40;99.90;;;;;;4981553;28;20097;-76
2022/02/12 11:13:10;;;;;;;1.13;0.63;;;19.40;99.90;;;;;;4980616;28;20027;-77
2022/02/12 11:15:37;;;;;;;1.05;0.60;;;19.40;99.90;;;;;;4980257;28;20029;-76
2022/02/12 11:18:12;;;;;;;2.33;0.40;;;19.40;99.90;;;;;;4978754;28;20080;-77
2022/02/12 11:20:44;;;;;;;0.55;0.50;;;19.40;99.90;;;;;;4962556;28;20065;-77
2022/02/12 11:25:54;;;;;;;1.48;0.32;;;19.40;99.90;;;;;;4977732;28;20046;-78
2022/02/12 11:28:30;;;;;;;2.13;0.38;;;19.30;99.90;;;;;;4984905;28;20333;-77
2022/02/12 11:31:16;;;;;;;2.78;0.40;;;19.20;99.90;;;;;;4979499;28;20108;-77
2022/02/12 11:34:17;;;;;;;2.50;1.08;;;19.20;99.90;;;;;;4984357;28;20046;-76
2022/02/12 11:36:50;;;;;;;3.22;0.40;;;19.10;99.90;;;;;;4986641;28;20557;-77
2022/02/12 11:39:27;;;;;;;1.65;0.30;;;19.10;99.90;;;;;;4988114;28;20083;-77
2022/02/12 11:42:05;;;;;;;3.08;1.02;;;19.10;99.90;;;;;;4979511;28;20129;-76
2022/02/12 11:44:50;;;;;;;2.10;0.60;;;19.10;99.90;;;;;;4989774;28;20819;-74
2022/02/12 11:47:17;;;;;;;3.05;0.85;;;19.10;99.90;;;;;;4980141;28;20027;-75
2022/02/12 11:49:48;;;;;;;2.05;0.60;;;19.00;99.90;;;;;;4989160;28;20465;-76
2022/02/12 11:52:18;;;;;;;2.22;0.68;;;19.10;99.90;;;;;;4984327;28;20038;-76
2022/02/12 11:54:45;;;;;;;2.50;1.85;;;19.00;99.90;;;;;;4981454;28;20142;-76
2022/02/12 11:57:17;;;;;;;3.92;0.90;;;19.00;99.90;;;;;;4984539;28;20085;-76
2022/02/12 11:59:45;;;;;;;1.95;0.50;;;19.00;99.90;;;;;;4972727;28;20157;-76
2022/02/12 12:02:44;;;;;;;1.15;0.82;;;19.00;99.90;;;;;;4982919;28;20026;-76
2022/02/12 12:05:22;;;;;;;1.33;0.30;;;19.00;99.90;;;;;;4984681;28;20031;-76
2022/02/12 12:08:09;;;;;;;0.85;0.43;;;19.00;99.90;;;;;;4979545;28;20052;-77
2022/02/12 12:10:51;;;;;;;1.02;0.40;;;19.00;99.90;;;;;;4989587;28;20038;-76
2022/02/12 12:13:26;;;;;;;0.88;0.38;;;18.90;99.90;;;;;;4989895;28;20044;-76
2022/02/12 12:15:57;;;;;;;2.65;1.08;;;19.00;99.90;;;;;;4988327;28;20037;-77
2022/02/12 12:18:27;;;;;;;1.75;0.50;;;19.00;99.90;;;;;;4982687;28;20040;-75
2022/02/12 12:20:55;;;;;;;2.70;0.88;;;18.90;99.90;;;;;;4977253;28;20026;-76
2022/02/12 12:23:22;;;;;;;4.00;0.80;;;18.90;99.90;;;;;;4987399;28;20097;-77
2022/02/12 12:25:58;;;;;;;4.97;1.15;;;18.90;99.90;;;;;;4984221;28;20113;-75
2022/02/12 12:30:43;;;;;;;3.63;0.70;;;18.90;99.90;;;;;;4986087;28;20038;-75
2022/02/12 12:31:30;;;;;;;4.47;0.90;;;18.90;99.90;;;;;;4979342;28;20382;-75
2022/02/12 12:34:07;;;;;;;5.75;1.05;;;18.90;99.90;;;;;;4975240;28;20031;-75
2022/02/12 12:36:41;;;;;;;1.70;0.93;;;18.90;99.90;;;;;;4984868;28;20030;-77
2022/02/12 12:39:13;;;;;;;1.80;0.40;;;18.90;99.90;;;;;;4989339;28;20038;-76
2022/02/12 12:41:43;;;;;;;3.72;0.68;;;18.90;99.90;;;;;;4979699;28;20034;-76
2022/02/12 12:44:20;;;;;;;7.25;0.90;;;18.90;99.90;;;;;;4990322;28;20039;-77
2022/02/12 12:46:49;;;;;;;2.22;0.80;;;18.90;99.90;;;;;;4975290;28;20035;-74
2022/02/12 12:49:34;;;;;;;3.15;0.80;;;18.90;99.90;;;;;;4980918;28;20045;-74
2022/02/12 12:52:03;;;;;;;3.75;0.70;;;18.90;99.90;;;;;;4982799;28;20117;-75
2022/02/12 12:54:35;;;;;;;4.20;0.73;;;18.90;99.90;;;;;;4978257;28;20057;-75
2022/02/12 12:57:04;;;;;;;3.13;0.50;;;18.90;99.90;;;;;;4981605;28;20102;-76
2022/02/12 12:59:33;;;;;;;1.25;0.55;;;18.90;99.90;;;;;;4997293;28;20026;-76
2022/02/12 13:02:06;;;;;;;1.85;0.63;;;18.90;99.90;;;;;;4989102;28;20093;-75
2022/02/12 13:04:38;;;;;;;4.35;1.17;;;18.80;99.90;;;;;;4986374;28;20049;-76
2022/02/12 13:07:06;;;;;;;5.25;1.05;;;18.80;99.90;;;;;;4978666;28;20039;-78
2022/02/12 13:09:35;;;;;;;1.73;0.40;;;18.90;99.90;;;;;;4988364;28;20030;-76
2022/02/12 13:12:23;;;;;;;3.58;0.85;;;18.80;99.90;;;;;;4980717;28;20088;-77
2022/02/12 13:14:51;;;;;;;1.92;1.27;;;18.80;99.90;;;;;;4981267;28;20105;-75
2022/02/12 13:17:18;;;;;;;2.67;1.13;;;18.80;99.90;;;;;;4984317;28;20098;-75